createdAt,value
2022-08-05T00:00:06.659Z,99739.59
2022-08-05T00:06:01.782Z,99735.00
2022-08-05T00:10:34.415Z,99738.78
2022-08-05T00:15:55.496Z,99725.84
2022-08-05T00:21:00.327Z,99726.38
2022-08-05T00:26:04.727Z,99726.91
2022-08-05T00:31:08.001Z,99728.50
2022-08-05T00:36:15.920Z,99718.00
2022-08-05T00:41:54.876Z,99723.34
2022-08-05T00:46:54.107Z,99731.00
2022-08-05T00:52:04.967Z,99731.41
2022-08-05T00:57:09.108Z,99741.59
2022-08-05T01:02:12.020Z,99729.03
2022-08-05T01:07:14.729Z,99736.50
2022-08-05T01:12:22.701Z,99735.09
2022-08-05T01:17:29.172Z,99736.28
2022-08-05T01:22:41.860Z,99746.47
2022-08-05T01:28:06.262Z,99737.34
2022-08-05T01:33:11.842Z,99731.03
2022-08-05T01:38:24.659Z,99739.09
2022-08-05T01:43:33.075Z,99736.59
2022-08-05T01:48:37.443Z,99731.22
2022-08-05T01:53:57.433Z,99731.41
2022-08-05T01:59:04.824Z,99723.59
2022-08-05T02:04:07.986Z,99717.66
2022-08-05T02:09:14.727Z,99716.81
2022-08-05T02:14:23.172Z,99711.59
2022-08-05T02:19:34.594Z,99716.56
2022-08-05T02:24:39.451Z,99716.22
2022-08-05T02:29:58.668Z,99719.00
2022-08-05T02:35:09.723Z,99706.44
2022-08-05T02:40:17.652Z,99716.22
2022-08-05T02:45:24.090Z,99720.44
2022-08-05T02:50:28.772Z,99716.88
2022-08-05T02:55:52.102Z,99708.25
2022-08-05T03:00:57.815Z,99717.78
2022-08-05T03:06:55.445Z,99715.81
2022-08-05T03:11:55.240Z,99723.03
2022-08-05T03:16:48.992Z,99716.16
2022-08-05T03:21:54.657Z,99706.53
2022-08-05T03:26:57.458Z,99723.56
2022-08-05T03:32:01.759Z,99729.44
2022-08-05T03:37:05.436Z,99733.03
2022-08-05T03:42:08.447Z,99735.84
2022-08-05T03:47:13.699Z,99735.50
2022-08-05T03:52:39.199Z,99740.28
2022-08-05T03:57:49.928Z,99748.22
2022-08-05T04:02:58.901Z,99755.31
2022-08-05T04:08:03.146Z,99750.22
2022-08-05T04:13:06.706Z,99746.66
2022-08-05T04:18:22.505Z,99750.78
2022-08-05T04:23:57.355Z,99745.22
2022-08-05T04:28:52.343Z,99752.91
2022-08-05T04:34:29.578Z,99750.31
2022-08-05T04:39:19.158Z,99770.44
2022-08-05T04:44:29.157Z,99769.69
2022-08-05T04:50:00.956Z,99785.41
2022-08-05T04:54:57.776Z,99848.19
2022-08-05T05:00:01.671Z,99860.28
2022-08-05T05:05:26.363Z,99841.25
2022-08-05T05:10:29.864Z,99873.34
2022-08-05T05:15:56.795Z,99864.78
2022-08-05T05:20:58.511Z,99881.31
2022-08-05T05:26:01.428Z,99887.50
2022-08-05T05:31:05.671Z,99888.72
2022-08-05T05:36:12.941Z,99897.56
2022-08-05T05:41:17.531Z,99917.28
2022-08-05T05:46:21.820Z,99904.00
2022-08-05T05:51:28.022Z,99899.25
2022-08-05T05:56:34.684Z,99899.16
2022-08-05T06:01:39.724Z,99886.81
2022-08-05T06:06:47.447Z,99888.94
2022-08-05T06:12:01.424Z,99899.31
2022-08-05T06:17:22.407Z,99896.69
2022-08-05T06:22:29.893Z,99904.72
2022-08-05T06:28:10.965Z,99886.78
2022-08-05T06:32:55.934Z,99896.16
2022-08-05T06:38:04.238Z,99894.03
2022-08-05T06:43:58.966Z,99894.75
2022-08-05T06:48:55.470Z,99891.25
2022-08-05T06:54:01.849Z,99910.94
2022-08-05T06:59:08.333Z,99884.75
2022-08-05T07:04:14.070Z,99897.28
2022-08-05T07:09:18.415Z,99905.44
2022-08-05T07:14:39.902Z,99924.84
2022-08-05T07:20:31.277Z,99940.63
2022-08-05T07:25:23.831Z,99957.13
2022-08-05T07:30:33.709Z,99951.53
2022-08-05T07:36:02.437Z,99963.81
2022-08-05T07:41:16.740Z,99972.16
2022-08-05T07:46:26.085Z,99997.31
2022-08-05T07:51:36.754Z,99994.88
2022-08-05T07:57:01.879Z,99998.34
2022-08-05T08:02:07.184Z,100004.44
2022-08-05T08:07:22.650Z,99992.16
2022-08-05T08:12:39.382Z,99997.88
2022-08-05T08:17:52.598Z,100013.72
2022-08-05T08:22:57.125Z,100019.72
2022-08-05T08:28:01.540Z,100032.78
2022-08-05T08:33:09.116Z,100047.72
2022-08-05T08:38:16.865Z,100042.22
2022-08-05T08:45:16.942Z,100042.72
2022-08-05T08:50:07.764Z,100030.94
2022-08-05T08:54:28.134Z,100028.53
2022-08-05T08:59:33.426Z,100026.19
2022-08-05T09:04:58.137Z,100012.50
2022-08-05T09:10:01.290Z,99983.88
2022-08-05T09:15:07.736Z,99964.59
2022-08-05T09:20:12.552Z,99964.16
2022-08-05T09:25:24.452Z,99953.75
2022-08-05T09:30:55.149Z,99953.28
2022-08-05T09:36:02.629Z,99938.84
2022-08-05T09:41:16.070Z,99930.78
2022-08-05T09:46:29.180Z,99925.84
2022-08-05T09:51:33.087Z,99931.53
2022-08-05T09:56:40.270Z,99951.81
2022-08-05T10:01:58.239Z,99952.00
2022-08-05T10:07:01.649Z,99961.06
2022-08-05T10:12:33.272Z,99955.03
2022-08-05T10:17:40.726Z,99950.53
2022-08-05T10:22:50.824Z,99958.31
2022-08-05T10:28:13.058Z,99952.66
2022-08-05T10:33:18.423Z,99948.19
2022-08-05T10:38:22.478Z,99951.81
2022-08-05T10:43:37.067Z,99951.22
2022-08-05T10:48:57.318Z,99966.16
2022-08-05T10:54:05.709Z,99947.94
2022-08-05T11:00:03.677Z,99938.84
2022-08-05T11:04:57.215Z,99933.34
2022-08-05T11:10:09.606Z,99953.47
2022-08-05T11:15:21.659Z,99947.97
2022-08-05T11:20:43.694Z,99942.69
2022-08-05T11:26:04.452Z,99936.78
2022-08-05T11:31:57.202Z,99929.69
2022-08-05T11:36:52.911Z,99914.84
2022-08-05T11:42:02.208Z,99919.72
2022-08-05T11:47:19.979Z,99922.19
2022-08-05T11:52:29.426Z,99919.13
2022-08-05T11:58:08.165Z,99911.56
2022-08-05T12:02:56.743Z,99911.72
2022-08-05T12:08:10.542Z,99907.06
2022-08-05T12:13:16.844Z,99906.66
2022-08-05T12:18:32.731Z,99916.34
2022-08-05T12:23:43.204Z,99914.16
2022-08-05T12:28:46.315Z,99900.16
2022-08-05T12:33:49.778Z,99898.06
2022-08-05T12:38:55.017Z,99902.75
2022-08-05T12:43:59.384Z,99893.19
2022-08-05T12:49:13.560Z,99903.31
2022-08-05T12:54:23.677Z,99896.44
2022-08-05T13:00:08.723Z,99909.31
2022-08-05T13:04:54.994Z,99906.91
2022-08-05T13:09:59.701Z,99901.91
2022-08-05T13:15:06.199Z,99916.50
2022-08-05T13:20:12.313Z,99901.22
2022-08-05T13:25:18.807Z,99889.88
2022-08-05T13:30:34.544Z,99889.03
2022-08-05T13:35:47.161Z,99902.22
2022-08-05T13:40:55.831Z,99904.13
2022-08-05T13:45:58.626Z,99907.69
2022-08-05T13:51:06.529Z,99896.09
2022-08-05T13:56:18.481Z,99901.19
2022-08-05T14:01:27.468Z,99921.69
2022-08-05T14:06:39.176Z,99902.84
2022-08-05T14:12:00.327Z,99913.78
2022-08-05T14:17:07.645Z,99914.47
2022-08-05T14:22:21.505Z,99905.59
2022-08-05T14:27:28.364Z,99913.31
2022-08-05T14:32:31.509Z,99912.72
2022-08-05T14:37:45.614Z,99926.25
2022-08-05T14:42:53.257Z,99918.09
2022-08-05T14:48:05.766Z,99911.97
2022-08-05T14:53:12.378Z,99925.81
2022-08-05T14:58:17.923Z,99940.25
2022-08-05T15:03:22.953Z,99947.69
2022-08-05T15:08:58.666Z,99938.72
2022-08-05T15:13:50.481Z,99946.91
2022-08-05T15:18:53.341Z,99954.03
2022-08-05T15:23:56.076Z,99950.44
2022-08-05T15:29:02.461Z,99955.78
2022-08-05T15:34:32.405Z,99967.63
2022-08-05T15:41:04.793Z,99958.41
2022-08-05T15:44:54.810Z,99967.66
2022-08-05T15:49:59.434Z,100002.38
2022-08-05T15:55:03.594Z,100036.28
2022-08-05T16:00:09.775Z,100049.78
2022-08-05T16:05:14.097Z,100082.00
2022-08-05T16:10:25.294Z,100070.38
2022-08-05T16:15:32.598Z,100099.16
2022-08-05T16:20:36.752Z,100120.03
2022-08-05T16:25:40.002Z,100126.09
2022-08-05T16:30:45.489Z,100135.06
2022-08-05T16:35:52.789Z,100160.97
2022-08-05T16:41:00.838Z,100167.59
2022-08-05T16:46:23.783Z,100164.91
2022-08-05T16:51:30.681Z,100199.50
2022-08-05T16:56:45.474Z,100213.34
2022-08-05T17:01:56.944Z,100227.06
2022-08-05T17:07:01.838Z,100252.09
2022-08-05T17:12:06.616Z,100277.69
2022-08-05T17:17:15.142Z,100279.00
2022-08-05T17:22:25.465Z,100284.91
2022-08-05T17:27:34.418Z,100287.47
2022-08-05T17:32:38.637Z,100284.94
2022-08-05T17:37:45.508Z,100270.25
2022-08-05T17:42:53.132Z,100301.44
2022-08-05T17:47:57.807Z,100306.88
2022-08-05T17:53:01.218Z,100337.16
2022-08-05T17:58:03.925Z,100345.44
2022-08-05T18:03:08.208Z,100351.88
2022-08-05T18:08:11.312Z,100369.88
2022-08-05T18:13:14.225Z,100369.34
2022-08-05T18:18:18.563Z,100351.81
2022-08-05T18:23:21.252Z,100359.06
2022-08-05T18:28:28.392Z,100388.31
2022-08-05T18:33:37.635Z,100394.13
2022-08-05T18:38:49.836Z,100396.56
2022-08-05T18:43:53.590Z,100402.81
2022-08-05T18:49:18.406Z,100407.88
2022-08-05T18:54:22.029Z,100419.22
2022-08-05T18:59:43.895Z,100431.53
2022-08-05T19:05:02.687Z,100442.66
2022-08-05T19:10:12.491Z,100453.22
2022-08-05T19:15:56.825Z,100453.38
2022-08-05T19:20:41.585Z,100475.56
2022-08-05T19:25:46.345Z,100484.63
2022-08-05T19:30:49.610Z,100490.34
2022-08-05T19:35:56.383Z,100520.41
2022-08-05T19:41:00.405Z,100522.47
2022-08-05T19:46:04.239Z,100543.00
2022-08-05T19:51:56.429Z,100541.22
2022-08-05T19:56:44.752Z,100543.88
2022-08-05T20:01:48.817Z,100517.78
2022-08-05T20:06:53.023Z,100543.97
2022-08-05T20:11:55.870Z,100567.81
2022-08-05T20:16:59.216Z,100557.97
2022-08-05T20:22:05.838Z,100562.88
2022-08-05T20:27:12.329Z,100577.09
2022-08-05T20:32:15.006Z,100565.00
2022-08-05T20:38:04.927Z,100591.78
2022-08-05T20:42:42.123Z,100631.03
2022-08-05T20:47:46.408Z,100613.38
2022-08-05T20:52:51.191Z,100640.91
2022-08-05T20:57:55.348Z,100687.16
2022-08-05T21:03:06.948Z,100659.84
2022-08-05T21:08:11.964Z,100641.59
2022-08-05T21:13:18.498Z,100658.84
2022-08-05T21:18:37.429Z,100627.59
2022-08-05T21:23:41.455Z,100561.91
2022-08-05T21:28:50.618Z,100594.94
2022-08-05T21:33:53.851Z,100647.34
2022-08-05T21:38:58.541Z,100656.28
2022-08-05T21:44:04.174Z,100669.81
2022-08-05T21:49:10.071Z,100674.97
2022-08-05T21:54:32.756Z,100629.63
2022-08-05T22:00:01.661Z,100616.94
2022-08-05T22:04:59.620Z,100577.56
2022-08-05T22:10:04.293Z,100599.28
2022-08-05T22:15:09.747Z,100673.84
2022-08-05T22:20:19.724Z,100704.22
2022-08-05T22:26:10.618Z,100720.66
2022-08-05T22:31:11.207Z,100720.47
2022-08-05T22:36:14.852Z,100716.75
2022-08-05T22:41:26.235Z,100714.50
2022-08-05T22:46:43.092Z,100733.81
2022-08-05T22:52:04.521Z,100738.94
2022-08-05T22:57:12.690Z,100711.09
2022-08-05T23:02:18.145Z,100719.72
2022-08-05T23:07:22.043Z,100729.44
2022-08-05T23:12:28.683Z,100720.00
2022-08-05T23:17:34.835Z,100728.22
2022-08-05T23:22:40.957Z,100746.69
2022-08-05T23:27:57.784Z,100752.84
2022-08-05T23:33:03.886Z,100733.91
2022-08-05T23:38:06.677Z,100744.97
2022-08-05T23:43:25.104Z,100741.66
2022-08-05T23:48:39.099Z,100757.78
2022-08-05T23:53:46.368Z,100765.06
2022-08-05T23:58:51.155Z,100766.06
